sensor_id;sensor_type;location;lat;lon;timestamp;P1;durP1;ratioP1;P2;durP2;ratioP2
62927;SDS011;51070;52.236;-0.892;2023-05-10T00:02:10;10.40;;;4.60;;
62927;SDS011;51070;52.236;-0.892;2023-05-10T00:04:36;7.70;;;4.20;;
62927;SDS011;51070;52.236;-0.892;2023-05-10T00:07:01;6.20;;;3.80;;
62927;SDS011;51070;52.236;-0.892;2023-05-10T00:09:26;6.70;;;3.80;;
62927;SDS011;51070;52.236;-0.892;2023-05-10T00:11:52;6.70;;;3.70;;
62927;SDS011;51070;52.236;-0.892;2023-05-10T00:14:21;5.90;;;3.10;;
62927;SDS011;51070;52.236;-0.892;2023-05-10T00:16:46;7.70;;;4.30;;
62927;SDS011;51070;52.236;-0.892;2023-05-10T00:19:12;6.00;;;3.70;;
62927;SDS011;51070;52.236;-0.892;2023-05-10T00:21:37;7.30;;;3.80;;
62927;SDS011;51070;52.236;-0.892;2023-05-10T00:24:03;12.10;;;4.00;;
62927;SDS011;51070;52.236;-0.892;2023-05-10T00:26:29;7.80;;;3.80;;
62927;SDS011;51070;52.236;-0.892;2023-05-10T00:28:55;10.20;;;4.50;;
62927;SDS011;51070;52.236;-0.892;2023-05-10T00:31:20;8.10;;;4.30;;
62927;SDS011;51070;52.236;-0.892;2023-05-10T00:33:46;10.60;;;4.90;;
62927;SDS011;51070;52.236;-0.892;2023-05-10T00:36:11;13.00;;;4.90;;
62927;SDS011;51070;52.236;-0.892;2023-05-10T00:38:36;9.80;;;4.30;;
62927;SDS011;51070;52.236;-0.892;2023-05-10T00:41:02;9.40;;;5.30;;
62927;SDS011;51070;52.236;-0.892;2023-05-10T00:43:28;7.20;;;4.30;;
62927;SDS011;51070;52.236;-0.892;2023-05-10T00:45:53;7.50;;;3.90;;
62927;SDS011;51070;52.236;-0.892;2023-05-10T00:48:19;7.70;;;4.30;;
62927;SDS011;51070;52.236;-0.892;2023-05-10T00:50:45;7.10;;;4.10;;
62927;SDS011;51070;52.236;-0.892;2023-05-10T00:53:11;7.10;;;4.20;;
62927;SDS011;51070;52.236;-0.892;2023-05-10T00:55:37;9.40;;;4.50;;
62927;SDS011;51070;52.236;-0.892;2023-05-10T00:58:03;9.70;;;4.30;;
62927;SDS011;51070;52.236;-0.892;2023-05-10T01:00:29;8.60;;;4.90;;
62927;SDS011;51070;52.236;-0.892;2023-05-10T01:02:55;8.40;;;4.60;;
62927;SDS011;51070;52.236;-0.892;2023-05-10T01:05:21;11.10;;;4.40;;
62927;SDS011;51070;52.236;-0.892;2023-05-10T01:07:47;8.70;;;4.40;;
62927;SDS011;51070;52.236;-0.892;2023-05-10T01:10:13;8.90;;;5.00;;
62927;SDS011;51070;52.236;-0.892;2023-05-10T01:12:40;10.80;;;4.90;;
62927;SDS011;51070;52.236;-0.892;2023-05-10T01:15:08;9.30;;;4.90;;
62927;SDS011;51070;52.236;-0.892;2023-05-10T01:20:03;11.40;;;6.50;;
62927;SDS011;51070;52.236;-0.892;2023-05-10T01:31:49;10.00;;;7.00;;
62927;SDS011;51070;52.236;-0.892;2023-05-10T01:34:27;12.80;;;7.00;;
62927;SDS011;51070;52.236;-0.892;2023-05-10T01:37:02;12.60;;;7.30;;
62927;SDS011;51070;52.236;-0.892;2023-05-10T01:39:36;14.90;;;7.80;;
62927;SDS011;51070;52.236;-0.892;2023-05-10T01:42:11;11.70;;;6.80;;
62927;SDS011;51070;52.236;-0.892;2023-05-10T01:47:20;14.00;;;7.40;;
62927;SDS011;51070;52.236;-0.892;2023-05-10T01:50:06;13.20;;;6.90;;
62927;SDS011;51070;52.236;-0.892;2023-05-10T01:52:44;11.80;;;6.90;;
62927;SDS011;51070;52.236;-0.892;2023-05-10T01:55:16;10.50;;;6.30;;
62927;SDS011;51070;52.236;-0.892;2023-05-10T01:57:46;12.30;;;7.10;;
62927;SDS011;51070;52.236;-0.892;2023-05-10T02:00:16;9.80;;;6.10;;
62927;SDS011;51070;52.236;-0.892;2023-05-10T02:02:47;9.60;;;5.50;;
62927;SDS011;51070;52.236;-0.892;2023-05-10T02:05:15;11.00;;;6.00;;
62927;SDS011;51070;52.236;-0.892;2023-05-10T02:07:42;13.50;;;6.60;;
62927;SDS011;51070;52.236;-0.892;2023-05-10T02:10:09;10.50;;;6.10;;
62927;SDS011;51070;52.236;-0.892;2023-05-10T02:12:37;9.20;;;5.90;;
62927;SDS011;51070;52.236;-0.892;2023-05-10T02:15:07;11.10;;;5.70;;
62927;SDS011;51070;52.236;-0.892;2023-05-10T02:17:34;12.70;;;6.50;;
62927;SDS011;51070;52.236;-0.892;2023-05-10T02:20:02;11.00;;;5.60;;
62927;SDS011;51070;52.236;-0.892;2023-05-10T02:22:30;8.40;;;5.30;;
62927;SDS011;51070;52.236;-0.892;2023-05-10T02:24:57;8.20;;;4.90;;
62927;SDS011;51070;52.236;-0.892;2023-05-10T02:27:23;11.90;;;5.50;;
62927;SDS011;51070;52.236;-0.892;2023-05-10T02:29:52;12.90;;;5.30;;
62927;SDS011;51070;52.236;-0.892;2023-05-10T02:32:18;11.30;;;5.40;;
62927;SDS011;51070;52.236;-0.892;2023-05-10T02:34:46;9.30;;;4.80;;
62927;SDS011;51070;52.236;-0.892;2023-05-10T02:37:16;10.60;;;5.00;;
62927;SDS011;51070;52.236;-0.892;2023-05-10T02:39:48;10.00;;;5.40;;
62927;SDS011;51070;52.236;-0.892;2023-05-10T02:42:18;9.40;;;5.40;;
62927;SDS011;51070;52.236;-0.892;2023-05-10T02:44:48;10.90;;;6.60;;
62927;SDS011;51070;52.236;-0.892;2023-05-10T02:47:17;12.30;;;5.70;;
62927;SDS011;51070;52.236;-0.892;2023-05-10T02:49:44;12.70;;;6.10;;
62927;SDS011;51070;52.236;-0.892;2023-05-10T02:52:10;10.90;;;6.20;;
62927;SDS011;51070;52.236;-0.892;2023-05-10T02:54:41;11.90;;;6.40;;
62927;SDS011;51070;52.236;-0.892;2023-05-10T02:57:11;15.50;;;6.30;;
62927;SDS011;51070;52.236;-0.892;2023-05-10T02:59:41;9.00;;;5.30;;
62927;SDS011;51070;52.236;-0.892;2023-05-10T03:02:08;9.90;;;5.00;;
62927;SDS011;51070;52.236;-0.892;2023-05-10T03:04:34;9.10;;;5.50;;
62927;SDS011;51070;52.236;-0.892;2023-05-10T03:07:00;16.70;;;5.60;;
62927;SDS011;51070;52.236;-0.892;2023-05-10T03:09:26;15.80;;;5.30;;
62927;SDS011;51070;52.236;-0.892;2023-05-10T03:11:56;8.00;;;4.70;;
62927;SDS011;51070;52.236;-0.892;2023-05-10T03:17:11;9.60;;;5.90;;
62927;SDS011;51070;52.236;-0.892;2023-05-10T03:19:53;12.10;;;5.80;;
62927;SDS011;51070;52.236;-0.892;2023-05-10T03:22:31;6.50;;;4.10;;
62927;SDS011;51070;52.236;-0.892;2023-05-10T03:25:00;10.60;;;4.70;;
62927;SDS011;51070;52.236;-0.892;2023-05-10T03:27:31;12.30;;;5.20;;
62927;SDS011;51070;52.236;-0.892;2023-05-10T03:29:58;11.20;;;5.60;;
62927;SDS011;51070;52.236;-0.892;2023-05-10T03:32:26;10.90;;;6.10;;
62927;SDS011;51070;52.236;-0.892;2023-05-10T03:34:55;11.10;;;5.80;;
62927;SDS011;51070;52.236;-0.892;2023-05-10T03:37:21;10.20;;;5.50;;
62927;SDS011;51070;52.236;-0.892;2023-05-10T03:39:46;7.60;;;5.30;;
62927;SDS011;51070;52.236;-0.892;2023-05-10T03:42:12;12.40;;;6.10;;
62927;SDS011;51070;52.236;-0.892;2023-05-10T03:44:40;10.70;;;5.90;;
62927;SDS011;51070;52.236;-0.892;2023-05-10T03:47:06;11.70;;;6.20;;
62927;SDS011;51070;52.236;-0.892;2023-05-10T03:49:31;9.10;;;4.80;;
62927;SDS011;51070;52.236;-0.892;2023-05-10T03:51:57;11.50;;;5.50;;
62927;SDS011;51070;52.236;-0.892;2023-05-10T03:54:22;11.30;;;5.80;;
62927;SDS011;51070;52.236;-0.892;2023-05-10T03:56:48;9.90;;;5.80;;
62927;SDS011;51070;52.236;-0.892;2023-05-10T03:59:13;10.40;;;5.30;;
62927;SDS011;51070;52.236;-0.892;2023-05-10T04:01:39;18.00;;;5.60;;
62927;SDS011;51070;52.236;-0.892;2023-05-10T04:04:04;11.30;;;5.90;;
62927;SDS011;51070;52.236;-0.892;2023-05-10T04:06:29;8.60;;;5.90;;
62927;SDS011;51070;52.236;-0.892;2023-05-10T04:08:55;12.10;;;6.00;;
62927;SDS011;51070;52.236;-0.892;2023-05-10T04:11:21;9.90;;;5.40;;
62927;SDS011;51070;52.236;-0.892;2023-05-10T04:13:50;11.90;;;5.00;;
62927;SDS011;51070;52.236;-0.892;2023-05-10T04:16:15;9.50;;;5.70;;
62927;SDS011;51070;52.236;-0.892;2023-05-10T04:18:40;9.80;;;5.30;;
62927;SDS011;51070;52.236;-0.892;2023-05-10T04:21:10;10.30;;;5.90;;
62927;SDS011;51070;52.236;-0.892;2023-05-10T04:23:37;11.80;;;5.20;;
62927;SDS011;51070;52.236;-0.892;2023-05-10T04:26:03;11.20;;;6.10;;
62927;SDS011;51070;52.236;-0.892;2023-05-10T04:28:28;12.10;;;4.90;;
62927;SDS011;51070;52.236;-0.892;2023-05-10T04:31:00;16.50;;;5.50;;
62927;SDS011;51070;52.236;-0.892;2023-05-10T04:33:35;7.80;;;5.50;;
62927;SDS011;51070;52.236;-0.892;2023-05-10T04:36:00;7.70;;;5.60;;
62927;SDS011;51070;52.236;-0.892;2023-05-10T04:38:26;8.00;;;5.00;;
62927;SDS011;51070;52.236;-0.892;2023-05-10T04:40:52;11.00;;;5.40;;
62927;SDS011;51070;52.236;-0.892;2023-05-10T04:43:18;8.00;;;5.20;;
62927;SDS011;51070;52.236;-0.892;2023-05-10T04:45:43;7.30;;;4.60;;
62927;SDS011;51070;52.236;-0.892;2023-05-10T04:48:09;8.70;;;4.90;;
62927;SDS011;51070;52.236;-0.892;2023-05-10T04:50:34;6.70;;;4.80;;
62927;SDS011;51070;52.236;-0.892;2023-05-10T04:53:00;9.20;;;5.50;;
62927;SDS011;51070;52.236;-0.892;2023-05-10T04:55:25;9.30;;;5.50;;
62927;SDS011;51070;52.236;-0.892;2023-05-10T04:57:52;7.70;;;4.60;;
62927;SDS011;51070;52.236;-0.892;2023-05-10T05:00:18;9.20;;;5.40;;
62927;SDS011;51070;52.236;-0.892;2023-05-10T05:02:44;6.30;;;4.70;;
62927;SDS011;51070;52.236;-0.892;2023-05-10T05:05:10;6.90;;;4.90;;
62927;SDS011;51070;52.236;-0.892;2023-05-10T05:07:36;7.20;;;4.60;;
62927;SDS011;51070;52.236;-0.892;2023-05-10T05:10:06;5.30;;;3.70;;
62927;SDS011;51070;52.236;-0.892;2023-05-10T05:12:33;5.60;;;4.20;;
62927;SDS011;51070;52.236;-0.892;2023-05-10T05:14:59;7.90;;;4.30;;
62927;SDS011;51070;52.236;-0.892;2023-05-10T05:17:26;4.40;;;3.70;;
62927;SDS011;51070;52.236;-0.892;2023-05-10T05:19:51;5.70;;;3.70;;
62927;SDS011;51070;52.236;-0.892;2023-05-10T05:22:17;6.40;;;3.90;;
62927;SDS011;51070;52.236;-0.892;2023-05-10T05:24:44;4.30;;;3.60;;
62927;SDS011;51070;52.236;-0.892;2023-05-10T05:27:10;7.40;;;3.70;;
62927;SDS011;51070;52.236;-0.892;2023-05-10T05:29:35;6.90;;;3.90;;
62927;SDS011;51070;52.236;-0.892;2023-05-10T05:32:00;5.30;;;3.30;;
62927;SDS011;51070;52.236;-0.892;2023-05-10T05:34:26;4.60;;;3.10;;
62927;SDS011;51070;52.236;-0.892;2023-05-10T05:36:52;6.00;;;3.70;;
62927;SDS011;51070;52.236;-0.892;2023-05-10T05:39:17;6.70;;;3.60;;
62927;SDS011;51070;52.236;-0.892;2023-05-10T05:41:42;5.80;;;3.70;;
62927;SDS011;51070;52.236;-0.892;2023-05-10T05:44:08;7.70;;;4.00;;
62927;SDS011;51070;52.236;-0.892;2023-05-10T05:46:35;5.30;;;3.60;;
62927;SDS011;51070;52.236;-0.892;2023-05-10T05:49:00;5.30;;;3.10;;
62927;SDS011;51070;52.236;-0.892;2023-05-10T05:51:25;6.40;;;3.10;;
62927;SDS011;51070;52.236;-0.892;2023-05-10T05:53:51;7.60;;;3.10;;
62927;SDS011;51070;52.236;-0.892;2023-05-10T05:56:16;6.30;;;3.40;;
62927;SDS011;51070;52.236;-0.892;2023-05-10T05:58:49;7.10;;;3.30;;
62927;SDS011;51070;52.236;-0.892;2023-05-10T06:01:15;7.30;;;3.70;;
62927;SDS011;51070;52.236;-0.892;2023-05-10T06:03:41;9.60;;;4.00;;
62927;SDS011;51070;52.236;-0.892;2023-05-10T06:06:07;6.20;;;3.10;;
62927;SDS011;51070;52.236;-0.892;2023-05-10T06:08:32;7.40;;;2.90;;
62927;SDS011;51070;52.236;-0.892;2023-05-10T06:10:59;9.20;;;3.90;;
62927;SDS011;51070;52.236;-0.892;2023-05-10T06:13:25;6.30;;;2.80;;
62927;SDS011;51070;52.236;-0.892;2023-05-10T06:15:53;5.90;;;3.30;;
62927;SDS011;51070;52.236;-0.892;2023-05-10T06:18:19;4.80;;;2.90;;
62927;SDS011;51070;52.236;-0.892;2023-05-10T06:20:44;4.90;;;2.40;;
62927;SDS011;51070;52.236;-0.892;2023-05-10T06:23:09;5.30;;;3.20;;
62927;SDS011;51070;52.236;-0.892;2023-05-10T06:25:35;4.90;;;2.60;;
62927;SDS011;51070;52.236;-0.892;2023-05-10T06:28:00;5.30;;;2.70;;
62927;SDS011;51070;52.236;-0.892;2023-05-10T06:30:27;5.10;;;2.90;;
62927;SDS011;51070;52.236;-0.892;2023-05-10T06:32:53;6.20;;;2.30;;
62927;SDS011;51070;52.236;-0.892;2023-05-10T06:35:19;6.10;;;2.60;;
62927;SDS011;51070;52.236;-0.892;2023-05-10T06:37:45;5.20;;;2.30;;
62927;SDS011;51070;52.236;-0.892;2023-05-10T06:40:11;5.60;;;2.20;;
62927;SDS011;51070;52.236;-0.892;2023-05-10T06:42:37;5.30;;;1.70;;
62927;SDS011;51070;52.236;-0.892;2023-05-10T06:45:03;7.00;;;2.10;;
62927;SDS011;51070;52.236;-0.892;2023-05-10T06:47:30;5.90;;;1.90;;
62927;SDS011;51070;52.236;-0.892;2023-05-10T06:49:55;3.40;;;2.20;;
62927;SDS011;51070;52.236;-0.892;2023-05-10T06:52:21;5.60;;;2.20;;
62927;SDS011;51070;52.236;-0.892;2023-05-10T06:54:46;6.40;;;2.00;;
62927;SDS011;51070;52.236;-0.892;2023-05-10T06:57:12;5.80;;;1.70;;
62927;SDS011;51070;52.236;-0.892;2023-05-10T06:59:37;4.70;;;1.90;;
62927;SDS011;51070;52.236;-0.892;2023-05-10T07:02:02;3.90;;;1.90;;
62927;SDS011;51070;52.236;-0.892;2023-05-10T07:04:28;5.60;;;2.00;;
62927;SDS011;51070;52.236;-0.892;2023-05-10T07:06:53;5.60;;;2.20;;
62927;SDS011;51070;52.236;-0.892;2023-05-10T07:09:19;5.30;;;1.90;;
62927;SDS011;51070;52.236;-0.892;2023-05-10T07:11:44;4.20;;;1.80;;
62927;SDS011;51070;52.236;-0.892;2023-05-10T07:14:10;5.30;;;2.40;;
62927;SDS011;51070;52.236;-0.892;2023-05-10T07:16:35;3.70;;;2.00;;
62927;SDS011;51070;52.236;-0.892;2023-05-10T07:19:01;4.70;;;2.00;;
62927;SDS011;51070;52.236;-0.892;2023-05-10T07:21:27;5.00;;;2.10;;
62927;SDS011;51070;52.236;-0.892;2023-05-10T07:23:53;6.30;;;2.40;;
62927;SDS011;51070;52.236;-0.892;2023-05-10T07:26:19;6.90;;;2.20;;
62927;SDS011;51070;52.236;-0.892;2023-05-10T07:28:46;3.60;;;1.80;;
62927;SDS011;51070;52.236;-0.892;2023-05-10T07:31:12;4.50;;;1.90;;
62927;SDS011;51070;52.236;-0.892;2023-05-10T07:33:37;7.10;;;2.00;;
62927;SDS011;51070;52.236;-0.892;2023-05-10T07:36:03;4.00;;;1.80;;
62927;SDS011;51070;52.236;-0.892;2023-05-10T07:38:28;3.60;;;1.70;;
62927;SDS011;51070;52.236;-0.892;2023-05-10T07:40:53;3.60;;;1.70;;
62927;SDS011;51070;52.236;-0.892;2023-05-10T07:43:19;3.90;;;1.80;;
62927;SDS011;51070;52.236;-0.892;2023-05-10T07:45:45;5.10;;;2.10;;
62927;SDS011;51070;52.236;-0.892;2023-05-10T07:48:10;5.50;;;1.90;;
62927;SDS011;51070;52.236;-0.892;2023-05-10T07:50:36;4.20;;;1.90;;
62927;SDS011;51070;52.236;-0.892;2023-05-10T07:53:01;4.80;;;1.80;;
62927;SDS011;51070;52.236;-0.892;2023-05-10T07:55:27;4.40;;;1.90;;
62927;SDS011;51070;52.236;-0.892;2023-05-10T07:57:52;5.20;;;1.80;;
62927;SDS011;51070;52.236;-0.892;2023-05-10T08:00:18;3.90;;;1.50;;
62927;SDS011;51070;52.236;-0.892;2023-05-10T08:02:45;4.00;;;1.90;;
62927;SDS011;51070;52.236;-0.892;2023-05-10T08:05:11;3.00;;;1.50;;
62927;SDS011;51070;52.236;-0.892;2023-05-10T08:07:36;4.20;;;1.70;;
62927;SDS011;51070;52.236;-0.892;2023-05-10T08:10:02;4.50;;;1.70;;
62927;SDS011;51070;52.236;-0.892;2023-05-10T08:12:28;4.60;;;1.70;;
62927;SDS011;51070;52.236;-0.892;2023-05-10T08:14:53;4.80;;;1.90;;
62927;SDS011;51070;52.236;-0.892;2023-05-10T08:17:19;3.00;;;1.50;;
62927;SDS011;51070;52.236;-0.892;2023-05-10T08:19:44;2.80;;;1.50;;
62927;SDS011;51070;52.236;-0.892;2023-05-10T08:22:09;2.80;;;1.50;;
62927;SDS011;51070;52.236;-0.892;2023-05-10T08:24:35;4.90;;;1.60;;
62927;SDS011;51070;52.236;-0.892;2023-05-10T08:27:04;3.20;;;1.60;;
62927;SDS011;51070;52.236;-0.892;2023-05-10T08:29:30;2.80;;;1.40;;
62927;SDS011;51070;52.236;-0.892;2023-05-10T08:31:55;6.30;;;1.40;;
62927;SDS011;51070;52.236;-0.892;2023-05-10T08:34:21;2.60;;;1.30;;
62927;SDS011;51070;52.236;-0.892;2023-05-10T08:36:46;4.40;;;1.30;;
62927;SDS011;51070;52.236;-0.892;2023-05-10T08:39:12;2.20;;;1.20;;
62927;SDS011;51070;52.236;-0.892;2023-05-10T08:41:39;2.80;;;1.20;;
62927;SDS011;51070;52.236;-0.892;2023-05-10T08:44:05;3.40;;;1.50;;
62927;SDS011;51070;52.236;-0.892;2023-05-10T08:46:33;4.50;;;1.80;;
62927;SDS011;51070;52.236;-0.892;2023-05-10T08:49:01;3.20;;;1.10;;
62927;SDS011;51070;52.236;-0.892;2023-05-10T08:51:29;1.50;;;1.00;;
62927;SDS011;51070;52.236;-0.892;2023-05-10T08:54:01;3.30;;;1.20;;
62927;SDS011;51070;52.236;-0.892;2023-05-10T08:56:28;2.70;;;1.30;;
62927;SDS011;51070;52.236;-0.892;2023-05-10T08:58:53;5.60;;;1.80;;
62927;SDS011;51070;52.236;-0.892;2023-05-10T09:01:23;2.70;;;1.60;;
62927;SDS011;51070;52.236;-0.892;2023-05-10T09:03:50;4.60;;;1.70;;
62927;SDS011;51070;52.236;-0.892;2023-05-10T09:06:15;4.80;;;1.40;;
62927;SDS011;51070;52.236;-0.892;2023-05-10T09:08:41;3.60;;;1.60;;
62927;SDS011;51070;52.236;-0.892;2023-05-10T09:11:08;2.80;;;1.40;;
62927;SDS011;51070;52.236;-0.892;2023-05-10T09:13:35;4.10;;;1.60;;
62927;SDS011;51070;52.236;-0.892;2023-05-10T09:18:28;3.30;;;1.30;;
62927;SDS011;51070;52.236;-0.892;2023-05-10T09:20:54;3.30;;;1.50;;
62927;SDS011;51070;52.236;-0.892;2023-05-10T09:23:19;3.90;;;1.50;;
62927;SDS011;51070;52.236;-0.892;2023-05-10T09:25:45;3.60;;;1.50;;
62927;SDS011;51070;52.236;-0.892;2023-05-10T09:28:10;4.20;;;1.50;;
62927;SDS011;51070;52.236;-0.892;2023-05-10T09:30:36;4.90;;;1.60;;
62927;SDS011;51070;52.236;-0.892;2023-05-10T09:33:04;5.10;;;1.80;;
62927;SDS011;51070;52.236;-0.892;2023-05-10T09:35:30;3.80;;;1.30;;
62927;SDS011;51070;52.236;-0.892;2023-05-10T09:38:03;4.80;;;1.20;;
62927;SDS011;51070;52.236;-0.892;2023-05-10T09:40:30;3.20;;;1.20;;
62927;SDS011;51070;52.236;-0.892;2023-05-10T09:43:03;4.70;;;1.50;;
62927;SDS011;51070;52.236;-0.892;2023-05-10T09:45:32;4.70;;;1.50;;
62927;SDS011;51070;52.236;-0.892;2023-05-10T09:47:59;5.30;;;1.60;;
62927;SDS011;51070;52.236;-0.892;2023-05-10T09:50:26;5.60;;;1.60;;
62927;SDS011;51070;52.236;-0.892;2023-05-10T09:58:11;3.80;;;1.70;;
62927;SDS011;51070;52.236;-0.892;2023-05-10T10:00:38;5.10;;;1.40;;
62927;SDS011;51070;52.236;-0.892;2023-05-10T10:03:11;5.20;;;1.60;;
62927;SDS011;51070;52.236;-0.892;2023-05-10T10:05:40;3.60;;;1.50;;
62927;SDS011;51070;52.236;-0.892;2023-05-10T10:08:06;6.60;;;1.60;;
62927;SDS011;51070;52.236;-0.892;2023-05-10T10:10:32;3.00;;;1.20;;
62927;SDS011;51070;52.236;-0.892;2023-05-10T10:12:58;5.70;;;1.40;;
62927;SDS011;51070;52.236;-0.892;2023-05-10T10:15:25;4.30;;;1.50;;
62927;SDS011;51070;52.236;-0.892;2023-05-10T10:17:51;2.70;;;1.20;;
62927;SDS011;51070;52.236;-0.892;2023-05-10T10:20:18;3.80;;;1.30;;
62927;SDS011;51070;52.236;-0.892;2023-05-10T10:22:46;3.90;;;1.20;;
62927;SDS011;51070;52.236;-0.892;2023-05-10T10:25:15;3.60;;;1.20;;
62927;SDS011;51070;52.236;-0.892;2023-05-10T10:35:35;1.90;;;0.90;;
62927;SDS011;51070;52.236;-0.892;2023-05-10T10:38:01;3.30;;;1.10;;
62927;SDS011;51070;52.236;-0.892;2023-05-10T10:40:27;3.60;;;1.50;;
62927;SDS011;51070;52.236;-0.892;2023-05-10T10:42:55;2.90;;;1.20;;
62927;SDS011;51070;52.236;-0.892;2023-05-10T10:45:21;2.60;;;0.90;;
62927;SDS011;51070;52.236;-0.892;2023-05-10T10:47:48;2.40;;;1.20;;
62927;SDS011;51070;52.236;-0.892;2023-05-10T10:50:15;3.50;;;1.20;;
62927;SDS011;51070;52.236;-0.892;2023-05-10T10:52:44;2.90;;;1.30;;
62927;SDS011;51070;52.236;-0.892;2023-05-10T10:57:47;4.10;;;1.60;;
62927;SDS011;51070;52.236;-0.892;2023-05-10T11:00:29;5.50;;;1.40;;
62927;SDS011;51070;52.236;-0.892;2023-05-10T11:07:53;4.30;;;1.40;;
62927;SDS011;51070;52.236;-0.892;2023-05-10T11:10:22;4.90;;;1.30;;
62927;SDS011;51070;52.236;-0.892;2023-05-10T11:13:02;3.00;;;1.20;;
62927;SDS011;51070;52.236;-0.892;2023-05-10T11:15:32;4.40;;;1.50;;
62927;SDS011;51070;52.236;-0.892;2023-05-10T11:18:17;1.40;;;0.90;;
62927;SDS011;51070;52.236;-0.892;2023-05-10T11:20:43;3.00;;;1.30;;
62927;SDS011;51070;52.236;-0.892;2023-05-10T11:23:15;2.00;;;1.20;;
62927;SDS011;51070;52.236;-0.892;2023-05-10T11:25:41;2.80;;;1.10;;
62927;SDS011;51070;52.236;-0.892;2023-05-10T11:28:09;3.30;;;1.30;;
62927;SDS011;51070;52.236;-0.892;2023-05-10T11:30:35;2.80;;;1.20;;
62927;SDS011;51070;52.236;-0.892;2023-05-10T11:33:03;3.30;;;1.60;;
62927;SDS011;51070;52.236;-0.892;2023-05-10T11:35:28;3.70;;;1.90;;
62927;SDS011;51070;52.236;-0.892;2023-05-10T11:37:53;3.90;;;1.50;;
62927;SDS011;51070;52.236;-0.892;2023-05-10T11:40:21;4.40;;;1.70;;
62927;SDS011;51070;52.236;-0.892;2023-05-10T11:42:48;2.50;;;1.10;;
62927;SDS011;51070;52.236;-0.892;2023-05-10T11:45:14;2.40;;;1.20;;
62927;SDS011;51070;52.236;-0.892;2023-05-10T11:47:39;7.10;;;4.60;;
62927;SDS011;51070;52.236;-0.892;2023-05-10T11:50:07;4.50;;;2.70;;
62927;SDS011;51070;52.236;-0.892;2023-05-10T11:52:36;2.50;;;1.40;;
62927;SDS011;51070;52.236;-0.892;2023-05-10T11:55:05;2.00;;;1.30;;
62927;SDS011;51070;52.236;-0.892;2023-05-10T11:57:31;3.20;;;1.40;;
62927;SDS011;51070;52.236;-0.892;2023-05-10T11:59:56;2.90;;;1.90;;
62927;SDS011;51070;52.236;-0.892;2023-05-10T12:02:22;2.30;;;1.20;;
62927;SDS011;51070;52.236;-0.892;2023-05-10T12:04:48;3.20;;;1.20;;
62927;SDS011;51070;52.236;-0.892;2023-05-10T12:07:15;2.30;;;1.20;;
62927;SDS011;51070;52.236;-0.892;2023-05-10T12:09:48;1.60;;;0.90;;
62927;SDS011;51070;52.236;-0.892;2023-05-10T12:12:40;3.20;;;0.50;;
62927;SDS011;51070;52.236;-0.892;2023-05-10T12:15:10;2.30;;;0.60;;
62927;SDS011;51070;52.236;-0.892;2023-05-10T12:17:37;1.50;;;0.90;;
62927;SDS011;51070;52.236;-0.892;2023-05-10T12:20:20;3.00;;;1.30;;
62927;SDS011;51070;52.236;-0.892;2023-05-10T12:22:52;2.70;;;1.00;;
62927;SDS011;51070;52.236;-0.892;2023-05-10T12:25:19;2.00;;;1.20;;
62927;SDS011;51070;52.236;-0.892;2023-05-10T12:27:52;3.10;;;1.30;;
62927;SDS011;51070;52.236;-0.892;2023-05-10T12:30:22;1.50;;;1.10;;
62927;SDS011;51070;52.236;-0.892;2023-05-10T12:32:50;1.70;;;0.60;;
62927;SDS011;51070;52.236;-0.892;2023-05-10T12:35:16;1.10;;;0.60;;
62927;SDS011;51070;52.236;-0.892;2023-05-10T12:37:42;0.90;;;0.50;;
62927;SDS011;51070;52.236;-0.892;2023-05-10T12:40:09;2.60;;;0.80;;
62927;SDS011;51070;52.236;-0.892;2023-05-10T12:42:39;1.30;;;0.60;;
62927;SDS011;51070;52.236;-0.892;2023-05-10T12:45:05;0.50;;;0.40;;
62927;SDS011;51070;52.236;-0.892;2023-05-10T12:47:32;1.60;;;0.70;;
62927;SDS011;51070;52.236;-0.892;2023-05-10T12:49:59;1.40;;;0.80;;
62927;SDS011;51070;52.236;-0.892;2023-05-10T12:52:25;1.60;;;0.70;;
62927;SDS011;51070;52.236;-0.892;2023-05-10T12:54:52;2.90;;;1.30;;
62927;SDS011;51070;52.236;-0.892;2023-05-10T12:57:18;1.50;;;1.20;;
62927;SDS011;51070;52.236;-0.892;2023-05-10T12:59:44;3.40;;;1.10;;
62927;SDS011;51070;52.236;-0.892;2023-05-10T13:02:09;3.30;;;1.20;;
62927;SDS011;51070;52.236;-0.892;2023-05-10T13:04:35;1.20;;;0.80;;
62927;SDS011;51070;52.236;-0.892;2023-05-10T13:07:04;2.70;;;1.00;;
62927;SDS011;51070;52.236;-0.892;2023-05-10T13:09:31;2.70;;;0.80;;
62927;SDS011;51070;52.236;-0.892;2023-05-10T13:11:56;2.00;;;1.00;;
62927;SDS011;51070;52.236;-0.892;2023-05-10T13:14:21;3.10;;;0.80;;
62927;SDS011;51070;52.236;-0.892;2023-05-10T13:16:47;5.00;;;1.90;;
62927;SDS011;51070;52.236;-0.892;2023-05-10T13:19:15;2.10;;;0.80;;
62927;SDS011;51070;52.236;-0.892;2023-05-10T13:21:42;1.80;;;0.70;;
62927;SDS011;51070;52.236;-0.892;2023-05-10T13:24:09;3.40;;;0.90;;
62927;SDS011;51070;52.236;-0.892;2023-05-10T13:26:36;2.10;;;0.70;;
62927;SDS011;51070;52.236;-0.892;2023-05-10T13:29:02;2.20;;;0.60;;
62927;SDS011;51070;52.236;-0.892;2023-05-10T13:31:28;3.40;;;0.90;;
62927;SDS011;51070;52.236;-0.892;2023-05-10T13:33:54;3.60;;;0.90;;
62927;SDS011;51070;52.236;-0.892;2023-05-10T13:36:20;3.30;;;0.90;;
62927;SDS011;51070;52.236;-0.892;2023-05-10T13:38:46;3.60;;;0.80;;
62927;SDS011;51070;52.236;-0.892;2023-05-10T13:41:11;1.60;;;0.90;;
62927;SDS011;51070;52.236;-0.892;2023-05-10T13:43:36;3.50;;;0.70;;
62927;SDS011;51070;52.236;-0.892;2023-05-10T13:46:02;1.80;;;0.60;;
62927;SDS011;51070;52.236;-0.892;2023-05-10T13:48:27;1.70;;;0.90;;
62927;SDS011;51070;52.236;-0.892;2023-05-10T13:50:53;1.70;;;0.90;;
62927;SDS011;51070;52.236;-0.892;2023-05-10T13:53:19;3.40;;;1.00;;
62927;SDS011;51070;52.236;-0.892;2023-05-10T13:55:44;3.30;;;0.80;;
62927;SDS011;51070;52.236;-0.892;2023-05-10T13:58:09;1.90;;;0.90;;
62927;SDS011;51070;52.236;-0.892;2023-05-10T14:00:35;0.60;;;0.60;;
62927;SDS011;51070;52.236;-0.892;2023-05-10T14:03:01;2.20;;;1.00;;
62927;SDS011;51070;52.236;-0.892;2023-05-10T14:05:26;1.20;;;0.80;;
62927;SDS011;51070;52.236;-0.892;2023-05-10T14:07:51;5.50;;;1.20;;
62927;SDS011;51070;52.236;-0.892;2023-05-10T14:10:20;4.60;;;1.90;;
62927;SDS011;51070;52.236;-0.892;2023-05-10T14:12:45;1.70;;;1.00;;
62927;SDS011;51070;52.236;-0.892;2023-05-10T14:15:11;1.80;;;0.90;;
62927;SDS011;51070;52.236;-0.892;2023-05-10T14:17:37;1.00;;;0.50;;
62927;SDS011;51070;52.236;-0.892;2023-05-10T14:20:02;1.90;;;0.60;;
62927;SDS011;51070;52.236;-0.892;2023-05-10T14:22:29;3.70;;;1.00;;
62927;SDS011;51070;52.236;-0.892;2023-05-10T14:24:54;2.20;;;0.90;;
62927;SDS011;51070;52.236;-0.892;2023-05-10T14:27:20;2.30;;;1.00;;
62927;SDS011;51070;52.236;-0.892;2023-05-10T14:29:47;1.50;;;1.00;;
62927;SDS011;51070;52.236;-0.892;2023-05-10T14:32:13;1.70;;;0.90;;
62927;SDS011;51070;52.236;-0.892;2023-05-10T14:34:38;1.60;;;1.00;;
62927;SDS011;51070;52.236;-0.892;2023-05-10T14:37:03;1.70;;;0.80;;
62927;SDS011;51070;52.236;-0.892;2023-05-10T14:39:29;1.80;;;1.00;;
62927;SDS011;51070;52.236;-0.892;2023-05-10T14:41:55;2.70;;;1.30;;
62927;SDS011;51070;52.236;-0.892;2023-05-10T14:44:21;4.70;;;0.90;;
62927;SDS011;51070;52.236;-0.892;2023-05-10T14:46:46;2.10;;;1.00;;
62927;SDS011;51070;52.236;-0.892;2023-05-10T14:49:13;3.80;;;1.10;;
62927;SDS011;51070;52.236;-0.892;2023-05-10T14:51:38;3.10;;;1.00;;
62927;SDS011;51070;52.236;-0.892;2023-05-10T14:54:04;2.10;;;1.00;;
62927;SDS011;51070;52.236;-0.892;2023-05-10T14:56:30;2.10;;;1.20;;
62927;SDS011;51070;52.236;-0.892;2023-05-10T14:58:56;3.80;;;1.40;;
62927;SDS011;51070;52.236;-0.892;2023-05-10T15:01:22;1.70;;;0.80;;
62927;SDS011;51070;52.236;-0.892;2023-05-10T15:03:47;2.20;;;1.10;;
62927;SDS011;51070;52.236;-0.892;2023-05-10T15:06:14;3.80;;;0.80;;
62927;SDS011;51070;52.236;-0.892;2023-05-10T15:08:41;2.30;;;1.20;;
62927;SDS011;51070;52.236;-0.892;2023-05-10T15:11:06;1.50;;;0.70;;
62927;SDS011;51070;52.236;-0.892;2023-05-10T15:13:32;1.10;;;0.70;;